sensor_id;sensor_type;location;lat;lon;timestamp;P1;durP1;ratioP1;P2;durP2;ratioP2
23360;SDS011;11852;50.082;18.554;2024-01-11T00:00:47;124.5;;;58.7;;
23360;SDS011;11852;50.082;18.554;2024-01-11T00:01:52;128.5;;;58.6;;
23360;SDS011;11852;50.082;18.554;2024-01-11T00:02:57;126.2;;;60.3;;
23360;SDS011;11852;50.082;18.554;2024-01-11T00:04:02;123.0;;;59.2;;
23360;SDS011;11852;50.082;18.554;2024-01-11T00:05:06;127.0;;;60.0;;
23360;SDS011;11852;50.082;18.554;2024-01-11T00:06:11;134.3;;;63.4;;
23360;SDS011;11852;50.082;18.554;2024-01-11T00:07:16;137.2;;;62.7;;
23360;SDS011;11852;50.082;18.554;2024-01-11T00:08:21;141.0;;;65.7;;
23360;SDS011;11852;50.082;18.554;2024-01-11T00:09:26;140.9;;;65.4;;
23360;SDS011;11852;50.082;18.554;2024-01-11T00:10:30;139.4;;;66.0;;
23360;SDS011;11852;50.082;18.554;2024-01-11T00:11:35;138.7;;;65.3;;
23360;SDS011;11852;50.082;18.554;2024-01-11T00:12:40;131.5;;;63.7;;
23360;SDS011;11852;50.082;18.554;2024-01-11T00:13:45;140.7;;;65.1;;
23360;SDS011;11852;50.082;18.554;2024-01-11T00:14:52;134.1;;;63.4;;
23360;SDS011;11852;50.082;18.554;2024-01-11T00:15:57;140.6;;;65.5;;
23360;SDS011;11852;50.082;18.554;2024-01-11T00:17:02;134.1;;;63.7;;
23360;SDS011;11852;50.082;18.554;2024-01-11T00:18:06;137.2;;;64.3;;
23360;SDS011;11852;50.082;18.554;2024-01-11T00:19:11;140.7;;;64.1;;
23360;SDS011;11852;50.082;18.554;2024-01-11T00:20:16;138.1;;;63.4;;
23360;SDS011;11852;50.082;18.554;2024-01-11T00:21:21;133.8;;;63.0;;
23360;SDS011;11852;50.082;18.554;2024-01-11T00:22:25;137.3;;;63.3;;
23360;SDS011;11852;50.082;18.554;2024-01-11T00:23:30;132.6;;;61.9;;
23360;SDS011;11852;50.082;18.554;2024-01-11T00:24:35;138.8;;;62.8;;
23360;SDS011;11852;50.082;18.554;2024-01-11T00:25:39;131.3;;;60.9;;
23360;SDS011;11852;50.082;18.554;2024-01-11T00:26:44;130.0;;;61.9;;
23360;SDS011;11852;50.082;18.554;2024-01-11T00:27:49;133.3;;;59.8;;
23360;SDS011;11852;50.082;18.554;2024-01-11T00:28:54;145.3;;;66.8;;
23360;SDS011;11852;50.082;18.554;2024-01-11T00:29:58;139.8;;;63.5;;
23360;SDS011;11852;50.082;18.554;2024-01-11T00:31:03;135.7;;;63.4;;
23360;SDS011;11852;50.082;18.554;2024-01-11T00:32:09;142.2;;;64.5;;
23360;SDS011;11852;50.082;18.554;2024-01-11T00:33:13;129.9;;;61.3;;
23360;SDS011;11852;50.082;18.554;2024-01-11T00:34:18;129.8;;;59.8;;
23360;SDS011;11852;50.082;18.554;2024-01-11T00:35:22;134.8;;;61.4;;
23360;SDS011;11852;50.082;18.554;2024-01-11T00:36:27;131.0;;;59.7;;
23360;SDS011;11852;50.082;18.554;2024-01-11T00:37:32;119.8;;;54.9;;
23360;SDS011;11852;50.082;18.554;2024-01-11T00:38:37;119.7;;;54.3;;
23360;SDS011;11852;50.082;18.554;2024-01-11T00:39:41;119.7;;;54.3;;
23360;SDS011;11852;50.082;18.554;2024-01-11T00:40:46;121.4;;;56.1;;
23360;SDS011;11852;50.082;18.554;2024-01-11T00:41:51;116.0;;;53.5;;
23360;SDS011;11852;50.082;18.554;2024-01-11T00:42:56;110.6;;;51.8;;
23360;SDS011;11852;50.082;18.554;2024-01-11T00:44:01;110.2;;;51.6;;
23360;SDS011;11852;50.082;18.554;2024-01-11T00:45:05;118.7;;;53.1;;
23360;SDS011;11852;50.082;18.554;2024-01-11T00:46:10;117.4;;;53.2;;
23360;SDS011;11852;50.082;18.554;2024-01-11T00:47:15;116.8;;;53.7;;
23360;SDS011;11852;50.082;18.554;2024-01-11T00:48:20;110.8;;;51.8;;
23360;SDS011;11852;50.082;18.554;2024-01-11T00:49:25;117.6;;;53.1;;
23360;SDS011;11852;50.082;18.554;2024-01-11T00:50:30;108.0;;;49.6;;
23360;SDS011;11852;50.082;18.554;2024-01-11T00:51:34;112.2;;;51.9;;
23360;SDS011;11852;50.082;18.554;2024-01-11T00:52:39;107.6;;;49.4;;
23360;SDS011;11852;50.082;18.554;2024-01-11T00:53:44;107.6;;;49.7;;
23360;SDS011;11852;50.082;18.554;2024-01-11T00:54:49;109.0;;;50.2;;
23360;SDS011;11852;50.082;18.554;2024-01-11T00:55:53;110.4;;;49.5;;
23360;SDS011;11852;50.082;18.554;2024-01-11T00:57:01;108.1;;;51.5;;
23360;SDS011;11852;50.082;18.554;2024-01-11T00:58:06;107.1;;;49.7;;
23360;SDS011;11852;50.082;18.554;2024-01-11T00:59:10;107.1;;;49.7;;
23360;SDS011;11852;50.082;18.554;2024-01-11T01:00:15;105.9;;;50.7;;
23360;SDS011;11852;50.082;18.554;2024-01-11T01:01:20;105.9;;;50.7;;
23360;SDS011;11852;50.082;18.554;2024-01-11T01:02:25;116.7;;;52.7;;
23360;SDS011;11852;50.082;18.554;2024-01-11T01:03:29;116.7;;;52.7;;
23360;SDS011;11852;50.082;18.554;2024-01-11T01:04:37;116.7;;;52.7;;
23360;SDS011;11852;50.082;18.554;2024-01-11T01:05:39;116.7;;;52.7;;
23360;SDS011;11852;50.082;18.554;2024-01-11T01:06:44;116.7;;;52.7;;
23360;SDS011;11852;50.082;18.554;2024-01-11T01:07:49;100.1;;;45.8;;
23360;SDS011;11852;50.082;18.554;2024-01-11T01:08:54;104.2;;;48.0;;
23360;SDS011;11852;50.082;18.554;2024-01-11T01:09:58;96.2;;;46.2;;
23360;SDS011;11852;50.082;18.554;2024-01-11T01:11:03;103.4;;;47.9;;
23360;SDS011;11852;50.082;18.554;2024-01-11T01:12:07;102.1;;;47.5;;
23360;SDS011;11852;50.082;18.554;2024-01-11T01:13:12;106.7;;;49.7;;
23360;SDS011;11852;50.082;18.554;2024-01-11T01:14:17;100.2;;;47.3;;
23360;SDS011;11852;50.082;18.554;2024-01-11T01:15:22;98.1;;;46.5;;
23360;SDS011;11852;50.082;18.554;2024-01-11T01:16:27;99.0;;;47.0;;
23360;SDS011;11852;50.082;18.554;2024-01-11T01:17:31;93.4;;;44.4;;
23360;SDS011;11852;50.082;18.554;2024-01-11T01:18:36;101.0;;;46.4;;
23360;SDS011;11852;50.082;18.554;2024-01-11T01:19:41;99.5;;;47.6;;
23360;SDS011;11852;50.082;18.554;2024-01-11T01:20:46;101.7;;;46.4;;
23360;SDS011;11852;50.082;18.554;2024-01-11T01:21:50;100.2;;;50.0;;
23360;SDS011;11852;50.082;18.554;2024-01-11T01:22:55;101.2;;;48.4;;
23360;SDS011;11852;50.082;18.554;2024-01-11T01:24:00;106.0;;;50.1;;
23360;SDS011;11852;50.082;18.554;2024-01-11T01:25:05;112.2;;;52.5;;
23360;SDS011;11852;50.082;18.554;2024-01-11T01:26:10;109.9;;;54.8;;
23360;SDS011;11852;50.082;18.554;2024-01-11T01:27:15;114.8;;;55.4;;
23360;SDS011;11852;50.082;18.554;2024-01-11T01:28:22;105.4;;;53.5;;
23360;SDS011;11852;50.082;18.554;2024-01-11T01:29:26;111.2;;;54.2;;
23360;SDS011;11852;50.082;18.554;2024-01-11T01:30:34;109.4;;;53.0;;
23360;SDS011;11852;50.082;18.554;2024-01-11T01:31:39;109.4;;;53.0;;
23360;SDS011;11852;50.082;18.554;2024-01-11T01:32:44;109.4;;;53.0;;
23360;SDS011;11852;50.082;18.554;2024-01-11T01:33:48;102.8;;;51.3;;
23360;SDS011;11852;50.082;18.554;2024-01-11T01:34:53;99.1;;;47.9;;
23360;SDS011;11852;50.082;18.554;2024-01-11T01:35:58;96.8;;;47.2;;
23360;SDS011;11852;50.082;18.554;2024-01-11T01:37:03;99.3;;;47.0;;
23360;SDS011;11852;50.082;18.554;2024-01-11T01:38:07;102.0;;;47.8;;
23360;SDS011;11852;50.082;18.554;2024-01-11T01:39:12;94.1;;;46.6;;
23360;SDS011;11852;50.082;18.554;2024-01-11T01:40:20;99.0;;;47.1;;
23360;SDS011;11852;50.082;18.554;2024-01-11T01:41:25;99.3;;;48.8;;
23360;SDS011;11852;50.082;18.554;2024-01-11T01:42:29;99.6;;;47.3;;
23360;SDS011;11852;50.082;18.554;2024-01-11T01:43:34;101.8;;;49.2;;
23360;SDS011;11852;50.082;18.554;2024-01-11T01:44:39;102.5;;;48.4;;
23360;SDS011;11852;50.082;18.554;2024-01-11T01:45:44;106.9;;;48.9;;
23360;SDS011;11852;50.082;18.554;2024-01-11T01:46:48;102.7;;;48.8;;
23360;SDS011;11852;50.082;18.554;2024-01-11T01:47:53;108.8;;;50.6;;
23360;SDS011;11852;50.082;18.554;2024-01-11T01:48:58;114.4;;;53.9;;
23360;SDS011;11852;50.082;18.554;2024-01-11T01:50:03;117.2;;;53.3;;
23360;SDS011;11852;50.082;18.554;2024-01-11T01:51:08;117.2;;;53.3;;
23360;SDS011;11852;50.082;18.554;2024-01-11T01:52:12;117.2;;;53.3;;
23360;SDS011;11852;50.082;18.554;2024-01-11T01:53:21;117.2;;;53.3;;
23360;SDS011;11852;50.082;18.554;2024-01-11T01:54:24;117.2;;;53.3;;
23360;SDS011;11852;50.082;18.554;2024-01-11T01:55:29;115.4;;;55.3;;
23360;SDS011;11852;50.082;18.554;2024-01-11T01:56:34;115.3;;;53.3;;
23360;SDS011;11852;50.082;18.554;2024-01-11T01:57:39;112.5;;;53.3;;
23360;SDS011;11852;50.082;18.554;2024-01-11T01:58:44;113.9;;;52.4;;
23360;SDS011;11852;50.082;18.554;2024-01-11T01:59:49;119.1;;;54.7;;
23360;SDS011;11852;50.082;18.554;2024-01-11T02:00:56;118.4;;;55.2;;
23360;SDS011;11852;50.082;18.554;2024-01-11T02:02:00;118.7;;;55.5;;
23360;SDS011;11852;50.082;18.554;2024-01-11T02:03:05;122.3;;;56.3;;
23360;SDS011;11852;50.082;18.554;2024-01-11T02:04:10;122.2;;;57.7;;
23360;SDS011;11852;50.082;18.554;2024-01-11T02:05:15;127.2;;;58.0;;
23360;SDS011;11852;50.082;18.554;2024-01-11T02:06:21;121.3;;;55.8;;
23360;SDS011;11852;50.082;18.554;2024-01-11T02:07:24;123.9;;;58.4;;
23360;SDS011;11852;50.082;18.554;2024-01-11T02:08:29;126.9;;;57.8;;
23360;SDS011;11852;50.082;18.554;2024-01-11T02:09:34;132.3;;;59.7;;
23360;SDS011;11852;50.082;18.554;2024-01-11T02:10:38;130.8;;;58.9;;
23360;SDS011;11852;50.082;18.554;2024-01-11T02:11:44;127.2;;;59.5;;
23360;SDS011;11852;50.082;18.554;2024-01-11T02:12:48;123.2;;;56.1;;
23360;SDS011;11852;50.082;18.554;2024-01-11T02:13:52;123.5;;;58.4;;
23360;SDS011;11852;50.082;18.554;2024-01-11T02:14:57;121.1;;;56.4;;
23360;SDS011;11852;50.082;18.554;2024-01-11T02:16:02;121.1;;;56.4;;
23360;SDS011;11852;50.082;18.554;2024-01-11T02:17:07;121.1;;;56.4;;
23360;SDS011;11852;50.082;18.554;2024-01-11T02:18:12;121.1;;;56.4;;
23360;SDS011;11852;50.082;18.554;2024-01-11T02:19:17;123.2;;;56.0;;
23360;SDS011;11852;50.082;18.554;2024-01-11T02:20:21;127.4;;;58.9;;
23360;SDS011;11852;50.082;18.554;2024-01-11T02:21:26;119.5;;;55.5;;
23360;SDS011;11852;50.082;18.554;2024-01-11T02:22:35;115.7;;;53.2;;
23360;SDS011;11852;50.082;18.554;2024-01-11T02:23:42;116.3;;;55.1;;
23360;SDS011;11852;50.082;18.554;2024-01-11T02:24:43;113.0;;;52.3;;
23360;SDS011;11852;50.082;18.554;2024-01-11T02:25:48;111.2;;;52.1;;
23360;SDS011;11852;50.082;18.554;2024-01-11T02:28:08;107.4;;;51.2;;
23360;SDS011;11852;50.082;18.554;2024-01-11T02:29:13;106.9;;;51.5;;
23360;SDS011;11852;50.082;18.554;2024-01-11T02:30:18;110.6;;;52.3;;
23360;SDS011;11852;50.082;18.554;2024-01-11T02:31:23;106.7;;;48.5;;
23360;SDS011;11852;50.082;18.554;2024-01-11T02:32:27;94.7;;;45.7;;
23360;SDS011;11852;50.082;18.554;2024-01-11T02:33:32;94.1;;;44.4;;
23360;SDS011;11852;50.082;18.554;2024-01-11T02:34:40;87.8;;;42.4;;
23360;SDS011;11852;50.082;18.554;2024-01-11T02:35:45;82.0;;;41.3;;
23360;SDS011;11852;50.082;18.554;2024-01-11T02:36:49;82.0;;;41.3;;
23360;SDS011;11852;50.082;18.554;2024-01-11T02:37:54;82.0;;;41.3;;
23360;SDS011;11852;50.082;18.554;2024-01-11T02:38:59;82.0;;;41.3;;
23360;SDS011;11852;50.082;18.554;2024-01-11T02:40:04;82.0;;;41.3;;
23360;SDS011;11852;50.082;18.554;2024-01-11T02:41:08;80.4;;;40.4;;
23360;SDS011;11852;50.082;18.554;2024-01-11T02:42:13;80.4;;;40.4;;
23360;SDS011;11852;50.082;18.554;2024-01-11T02:43:18;80.4;;;40.4;;
23360;SDS011;11852;50.082;18.554;2024-01-11T02:44:23;75.6;;;36.8;;
23360;SDS011;11852;50.082;18.554;2024-01-11T02:45:28;75.5;;;37.6;;
23360;SDS011;11852;50.082;18.554;2024-01-11T02:46:33;77.3;;;38.4;;
23360;SDS011;11852;50.082;18.554;2024-01-11T02:47:38;67.5;;;35.1;;
23360;SDS011;11852;50.082;18.554;2024-01-11T02:48:42;71.7;;;36.9;;
23360;SDS011;11852;50.082;18.554;2024-01-11T02:49:47;74.4;;;36.0;;
23360;SDS011;11852;50.082;18.554;2024-01-11T02:50:51;69.7;;;36.4;;
23360;SDS011;11852;50.082;18.554;2024-01-11T02:51:56;71.6;;;36.0;;
23360;SDS011;11852;50.082;18.554;2024-01-11T02:53:01;74.3;;;37.5;;
23360;SDS011;11852;50.082;18.554;2024-01-11T02:54:06;73.9;;;36.8;;
23360;SDS011;11852;50.082;18.554;2024-01-11T02:55:10;73.1;;;36.7;;
23360;SDS011;11852;50.082;18.554;2024-01-11T02:56:15;71.4;;;35.7;;
23360;SDS011;11852;50.082;18.554;2024-01-11T02:57:20;74.5;;;36.7;;
23360;SDS011;11852;50.082;18.554;2024-01-11T02:58:25;70.5;;;35.4;;
23360;SDS011;11852;50.082;18.554;2024-01-11T02:59:30;69.5;;;36.2;;
23360;SDS011;11852;50.082;18.554;2024-01-11T03:00:34;72.5;;;36.3;;
23360;SDS011;11852;50.082;18.554;2024-01-11T03:01:39;73.2;;;38.3;;
23360;SDS011;11852;50.082;18.554;2024-01-11T03:02:44;70.3;;;36.5;;
23360;SDS011;11852;50.082;18.554;2024-01-11T03:03:48;72.4;;;38.4;;
23360;SDS011;11852;50.082;18.554;2024-01-11T03:04:53;74.5;;;37.5;;
23360;SDS011;11852;50.082;18.554;2024-01-11T03:05:58;73.6;;;38.2;;
23360;SDS011;11852;50.082;18.554;2024-01-11T03:07:03;72.3;;;38.7;;
23360;SDS011;11852;50.082;18.554;2024-01-11T03:08:13;74.9;;;37.4;;
23360;SDS011;11852;50.082;18.554;2024-01-11T03:09:18;71.0;;;36.2;;
23360;SDS011;11852;50.082;18.554;2024-01-11T03:10:23;75.5;;;38.4;;
23360;SDS011;11852;50.082;18.554;2024-01-11T03:11:28;73.1;;;37.7;;
23360;SDS011;11852;50.082;18.554;2024-01-11T03:12:39;72.3;;;37.7;;
23360;SDS011;11852;50.082;18.554;2024-01-11T03:13:42;71.3;;;36.5;;
23360;SDS011;11852;50.082;18.554;2024-01-11T03:14:47;71.3;;;35.9;;
23360;SDS011;11852;50.082;18.554;2024-01-11T03:15:52;107.4;;;47.1;;
23360;SDS011;11852;50.082;18.554;2024-01-11T03:16:57;101.5;;;45.2;;
23360;SDS011;11852;50.082;18.554;2024-01-11T03:18:01;123.0;;;55.0;;
23360;SDS011;11852;50.082;18.554;2024-01-11T03:19:06;143.8;;;64.3;;
23360;SDS011;11852;50.082;18.554;2024-01-11T03:20:11;137.3;;;61.0;;
23360;SDS011;11852;50.082;18.554;2024-01-11T03:21:16;202.1;;;80.6;;
23360;SDS011;11852;50.082;18.554;2024-01-11T03:22:20;196.1;;;77.5;;
23360;SDS011;11852;50.082;18.554;2024-01-11T03:23:25;189.7;;;75.5;;
23360;SDS011;11852;50.082;18.554;2024-01-11T03:24:30;147.7;;;62.6;;
23360;SDS011;11852;50.082;18.554;2024-01-11T03:25:35;109.5;;;50.8;;
23360;SDS011;11852;50.082;18.554;2024-01-11T03:26:40;152.0;;;64.8;;
23360;SDS011;11852;50.082;18.554;2024-01-11T03:27:44;154.4;;;68.3;;
23360;SDS011;11852;50.082;18.554;2024-01-11T03:28:49;136.7;;;61.9;;
23360;SDS011;11852;50.082;18.554;2024-01-11T03:29:54;135.3;;;60.6;;
23360;SDS011;11852;50.082;18.554;2024-01-11T03:30:58;126.4;;;59.8;;
23360;SDS011;11852;50.082;18.554;2024-01-11T03:32:03;124.8;;;60.7;;
23360;SDS011;11852;50.082;18.554;2024-01-11T03:33:11;119.1;;;58.4;;
23360;SDS011;11852;50.082;18.554;2024-01-11T03:34:16;120.8;;;57.6;;
23360;SDS011;11852;50.082;18.554;2024-01-11T03:35:20;119.2;;;56.4;;
23360;SDS011;11852;50.082;18.554;2024-01-11T03:36:25;118.6;;;57.0;;
23360;SDS011;11852;50.082;18.554;2024-01-11T03:37:30;115.5;;;55.3;;
23360;SDS011;11852;50.082;18.554;2024-01-11T03:38:36;131.4;;;59.9;;
23360;SDS011;11852;50.082;18.554;2024-01-11T03:39:41;126.8;;;59.4;;
23360;SDS011;11852;50.082;18.554;2024-01-11T03:40:45;120.0;;;55.3;;
23360;SDS011;11852;50.082;18.554;2024-01-11T03:41:50;120.7;;;58.1;;
23360;SDS011;11852;50.082;18.554;2024-01-11T03:42:55;108.6;;;51.7;;
23360;SDS011;11852;50.082;18.554;2024-01-11T03:44:00;108.3;;;50.4;;
23360;SDS011;11852;50.082;18.554;2024-01-11T03:45:05;107.2;;;50.4;;
23360;SDS011;11852;50.082;18.554;2024-01-11T03:46:09;105.7;;;48.5;;
23360;SDS011;11852;50.082;18.554;2024-01-11T03:47:14;101.6;;;48.9;;
23360;SDS011;11852;50.082;18.554;2024-01-11T03:48:19;95.7;;;44.7;;
23360;SDS011;11852;50.082;18.554;2024-01-11T03:49:23;92.9;;;45.4;;
23360;SDS011;11852;50.082;18.554;2024-01-11T03:50:28;99.9;;;47.0;;
23360;SDS011;11852;50.082;18.554;2024-01-11T03:51:34;96.2;;;45.3;;
23360;SDS011;11852;50.082;18.554;2024-01-11T03:52:39;100.4;;;48.1;;
23360;SDS011;11852;50.082;18.554;2024-01-11T03:53:42;96.0;;;46.1;;
23360;SDS011;11852;50.082;18.554;2024-01-11T03:54:47;100.0;;;49.3;;
23360;SDS011;11852;50.082;18.554;2024-01-11T03:55:52;96.5;;;45.0;;
23360;SDS011;11852;50.082;18.554;2024-01-11T03:56:57;90.2;;;44.6;;
23360;SDS011;11852;50.082;18.554;2024-01-11T03:58:01;93.3;;;44.6;;
23360;SDS011;11852;50.082;18.554;2024-01-11T03:59:10;85.6;;;42.0;;
23360;SDS011;11852;50.082;18.554;2024-01-11T04:00:15;88.8;;;42.3;;
23360;SDS011;11852;50.082;18.554;2024-01-11T04:01:20;84.2;;;42.1;;
23360;SDS011;11852;50.082;18.554;2024-01-11T04:02:25;83.8;;;40.4;;
23360;SDS011;11852;50.082;18.554;2024-01-11T04:03:30;76.3;;;37.7;;
23360;SDS011;11852;50.082;18.554;2024-01-11T04:04:37;73.9;;;37.1;;
23360;SDS011;11852;50.082;18.554;2024-01-11T04:05:42;69.9;;;35.1;;
23360;SDS011;11852;50.082;18.554;2024-01-11T04:06:46;75.6;;;37.5;;
23360;SDS011;11852;50.082;18.554;2024-01-11T04:07:51;73.8;;;36.8;;
23360;SDS011;11852;50.082;18.554;2024-01-11T04:08:56;73.1;;;36.7;;
23360;SDS011;11852;50.082;18.554;2024-01-11T04:10:40;73.1;;;36.7;;
23360;SDS011;11852;50.082;18.554;2024-01-11T04:11:54;73.1;;;36.7;;
23360;SDS011;11852;50.082;18.554;2024-01-11T04:13:57;73.1;;;36.7;;
23360;SDS011;11852;50.082;18.554;2024-01-11T04:15:02;73.3;;;38.0;;
23360;SDS011;11852;50.082;18.554;2024-01-11T04:16:06;74.5;;;38.2;;
23360;SDS011;11852;50.082;18.554;2024-01-11T04:17:11;72.7;;;38.3;;
23360;SDS011;11852;50.082;18.554;2024-01-11T04:18:16;70.7;;;36.0;;
23360;SDS011;11852;50.082;18.554;2024-01-11T04:19:21;74.8;;;38.2;;
23360;SDS011;11852;50.082;18.554;2024-01-11T04:20:25;71.9;;;36.9;;
23360;SDS011;11852;50.082;18.554;2024-01-11T04:21:30;73.0;;;37.1;;
23360;SDS011;11852;50.082;18.554;2024-01-11T04:22:35;70.7;;;36.9;;
23360;SDS011;11852;50.082;18.554;2024-01-11T04:23:40;71.1;;;36.4;;
23360;SDS011;11852;50.082;18.554;2024-01-11T04:24:44;70.1;;;37.5;;
23360;SDS011;11852;50.082;18.554;2024-01-11T04:25:49;69.7;;;36.0;;
23360;SDS011;11852;50.082;18.554;2024-01-11T04:26:54;70.6;;;35.8;;
23360;SDS011;11852;50.082;18.554;2024-01-11T04:27:59;73.0;;;36.1;;
23360;SDS011;11852;50.082;18.554;2024-01-11T04:29:03;68.3;;;36.3;;
23360;SDS011;11852;50.082;18.554;2024-01-11T04:30:08;65.9;;;34.6;;
23360;SDS011;11852;50.082;18.554;2024-01-11T04:31:14;67.2;;;35.6;;
23360;SDS011;11852;50.082;18.554;2024-01-11T04:32:21;73.5;;;37.5;;
23360;SDS011;11852;50.082;18.554;2024-01-11T04:33:26;72.2;;;38.1;;
23360;SDS011;11852;50.082;18.554;2024-01-11T04:34:30;74.2;;;39.8;;
23360;SDS011;11852;50.082;18.554;2024-01-11T04:35:36;70.1;;;36.3;;
23360;SDS011;11852;50.082;18.554;2024-01-11T04:36:40;67.4;;;36.6;;
23360;SDS011;11852;50.082;18.554;2024-01-11T04:37:45;67.0;;;36.6;;
23360;SDS011;11852;50.082;18.554;2024-01-11T04:38:52;71.0;;;37.7;;
23360;SDS011;11852;50.082;18.554;2024-01-11T04:39:57;68.1;;;36.6;;
23360;SDS011;11852;50.082;18.554;2024-01-11T04:41:02;63.9;;;34.2;;
23360;SDS011;11852;50.082;18.554;2024-01-11T04:42:07;68.2;;;37.4;;
23360;SDS011;11852;50.082;18.554;2024-01-11T04:43:11;67.3;;;36.9;;
23360;SDS011;11852;50.082;18.554;2024-01-11T04:44:16;69.8;;;37.4;;
23360;SDS011;11852;50.082;18.554;2024-01-11T04:45:21;71.6;;;36.8;;
23360;SDS011;11852;50.082;18.554;2024-01-11T04:46:26;69.8;;;36.9;;
23360;SDS011;11852;50.082;18.554;2024-01-11T04:47:30;73.7;;;38.2;;
23360;SDS011;11852;50.082;18.554;2024-01-11T04:48:35;66.1;;;34.7;;
23360;SDS011;11852;50.082;18.554;2024-01-11T04:49:40;70.8;;;37.7;;
23360;SDS011;11852;50.082;18.554;2024-01-11T04:50:45;76.2;;;39.4;;
23360;SDS011;11852;50.082;18.554;2024-01-11T04:51:49;70.4;;;36.9;;
23360;SDS011;11852;50.082;18.554;2024-01-11T04:52:54;68.6;;;34.7;;
23360;SDS011;11852;50.082;18.554;2024-01-11T04:53:59;67.6;;;34.3;;
23360;SDS011;11852;50.082;18.554;2024-01-11T04:55:04;67.6;;;34.3;;
23360;SDS011;11852;50.082;18.554;2024-01-11T04:56:09;67.6;;;34.3;;
23360;SDS011;11852;50.082;18.554;2024-01-11T04:57:13;70.6;;;36.3;;
23360;SDS011;11852;50.082;18.554;2024-01-11T04:58:18;73.6;;;37.5;;
23360;SDS011;11852;50.082;18.554;2024-01-11T04:59:23;71.0;;;37.8;;
23360;SDS011;11852;50.082;18.554;2024-01-11T05:00:27;69.7;;;36.7;;
23360;SDS011;11852;50.082;18.554;2024-01-11T05:01:32;70.1;;;36.8;;
23360;SDS011;11852;50.082;18.554;2024-01-11T05:02:37;73.1;;;37.6;;
23360;SDS011;11852;50.082;18.554;2024-01-11T05:03:45;71.0;;;37.5;;
23360;SDS011;11852;50.082;18.554;2024-01-11T05:04:49;69.9;;;36.3;;
23360;SDS011;11852;50.082;18.554;2024-01-11T05:05:54;72.9;;;36.0;;
23360;SDS011;11852;50.082;18.554;2024-01-11T05:07:01;73.2;;;38.2;;
23360;SDS011;11852;50.082;18.554;2024-01-11T05:08:06;72.2;;;37.2;;
23360;SDS011;11852;50.082;18.554;2024-01-11T05:09:11;76.4;;;38.1;;
23360;SDS011;11852;50.082;18.554;2024-01-11T05:10:16;73.4;;;36.7;;
23360;SDS011;11852;50.082;18.554;2024-01-11T05:11:21;80.0;;;38.0;;
23360;SDS011;11852;50.082;18.554;2024-01-11T05:12:25;73.1;;;36.8;;
23360;SDS011;11852;50.082;18.554;2024-01-11T05:13:30;73.0;;;36.8;;
23360;SDS011;11852;50.082;18.554;2024-01-11T05:14:34;76.1;;;37.5;;
23360;SDS011;11852;50.082;18.554;2024-01-11T05:15:39;75.7;;;38.9;;
23360;SDS011;11852;50.082;18.554;2024-01-11T05:16:44;74.1;;;37.0;;
23360;SDS011;11852;50.082;18.554;2024-01-11T05:17:49;78.3;;;38.4;;
23360;SDS011;11852;50.082;18.554;2024-01-11T05:18:55;78.1;;;37.9;;
23360;SDS011;11852;50.082;18.554;2024-01-11T05:19:58;78.3;;;37.1;;
23360;SDS011;11852;50.082;18.554;2024-01-11T05:21:03;77.3;;;38.6;;
23360;SDS011;11852;50.082;18.554;2024-01-11T05:22:11;77.6;;;38.3;;
23360;SDS011;11852;50.082;18.554;2024-01-11T05:23:15;75.6;;;38.1;;
23360;SDS011;11852;50.082;18.554;2024-01-11T05:24:20;81.1;;;40.0;;
23360;SDS011;11852;50.082;18.554;2024-01-11T05:25:25;79.4;;;38.9;;
23360;SDS011;11852;50.082;18.554;2024-01-11T05:26:30;74.6;;;37.6;;
23360;SDS011;11852;50.082;18.554;2024-01-11T05:27:34;78.7;;;39.1;;
23360;SDS011;11852;50.082;18.554;2024-01-11T05:28:39;78.2;;;37.9;;
23360;SDS011;11852;50.082;18.554;2024-01-11T05:29:44;79.4;;;40.6;;
23360;SDS011;11852;50.082;18.554;2024-01-11T05:30:49;77.3;;;39.7;;
23360;SDS011;11852;50.082;18.554;2024-01-11T05:31:56;76.1;;;38.1;;
23360;SDS011;11852;50.082;18.554;2024-01-11T05:33:01;76.1;;;38.1;;
23360;SDS011;11852;50.082;18.554;2024-01-11T05:34:06;85.3;;;41.1;;
23360;SDS011;11852;50.082;18.554;2024-01-11T05:35:10;83.4;;;40.5;;
23360;SDS011;11852;50.082;18.554;2024-01-11T05:36:15;81.1;;;39.8;;
23360;SDS011;11852;50.082;18.554;2024-01-11T05:37:20;80.9;;;40.6;;
23360;SDS011;11852;50.082;18.554;2024-01-11T05:38:24;81.5;;;39.1;;
23360;SDS011;11852;50.082;18.554;2024-01-11T05:39:29;79.9;;;37.8;;
23360;SDS011;11852;50.082;18.554;2024-01-11T05:40:34;77.3;;;38.2;;
23360;SDS011;11852;50.082;18.554;2024-01-11T05:41:38;84.8;;;41.5;;
23360;SDS011;11852;50.082;18.554;2024-01-11T05:42:43;87.6;;;40.2;;
23360;SDS011;11852;50.082;18.554;2024-01-11T05:43:48;88.8;;;40.9;;
23360;SDS011;11852;50.082;18.554;2024-01-11T05:44:53;90.9;;;41.7;;
23360;SDS011;11852;50.082;18.554;2024-01-11T05:45:57;92.8;;;43.8;;
23360;SDS011;11852;50.082;18.554;2024-01-11T05:47:02;92.8;;;43.8;;
23360;SDS011;11852;50.082;18.554;2024-01-11T05:48:07;94.7;;;44.5;;
23360;SDS011;11852;50.082;18.554;2024-01-11T05:49:12;102.9;;;44.8;;
23360;SDS011;11852;50.082;18.554;2024-01-11T05:50:17;88.3;;;41.9;;
23360;SDS011;11852;50.082;18.554;2024-01-11T05:51:21;94.5;;;43.6;;
23360;SDS011;11852;50.082;18.554;2024-01-11T05:52:26;99.4;;;46.8;;
23360;SDS011;11852;50.082;18.554;2024-01-11T05:53:31;92.8;;;43.5;;
23360;SDS011;11852;50.082;18.554;2024-01-11T05:54:35;90.6;;;43.3;;
23360;SDS011;11852;50.082;18.554;2024-01-11T05:55:40;90.6;;;43.3;;
23360;SDS011;11852;50.082;18.554;2024-01-11T05:56:48;90.6;;;43.3;;
23360;SDS011;11852;50.082;18.554;2024-01-11T05:57:52;90.6;;;43.3;;
23360;SDS011;11852;50.082;18.554;2024-01-11T05:59:00;90.6;;;43.3;;
23360;SDS011;11852;50.082;18.554;2024-01-11T06:00:05;109.5;;;48.4;;
23360;SDS011;11852;50.082;18.554;2024-01-11T06:01:10;120.6;;;52.5;;
23360;SDS011;11852;50.082;18.554;2024-01-11T06:02:17;121.4;;;52.9;;
23360;SDS011;11852;50.082;18.554;2024-01-11T06:03:22;124.7;;;54.4;;
23360;SDS011;11852;50.082;18.554;2024-01-11T06:04:27;128.9;;;55.3;;
23360;SDS011;11852;50.082;18.554;2024-01-11T06:05:31;131.7;;;54.7;;
23360;SDS011;11852;50.082;18.554;2024-01-11T06:06:36;123.6;;;52.4;;
23360;SDS011;11852;50.082;18.554;2024-01-11T06:07:43;125.2;;;52.8;;
23360;SDS011;11852;50.082;18.554;2024-01-11T06:08:48;122.1;;;52.7;;
23360;SDS011;11852;50.082;18.554;2024-01-11T06:09:53;127.8;;;54.1;;
23360;SDS011;11852;50.082;18.554;2024-01-11T06:10:58;117.3;;;51.4;;
23360;SDS011;11852;50.082;18.554;2024-01-11T06:12:02;115.0;;;50.3;;
23360;SDS011;11852;50.082;18.554;2024-01-11T06:13:07;120.0;;;51.3;;
23360;SDS011;11852;50.082;18.554;2024-01-11T06:14:12;118.5;;;52.3;;
23360;SDS011;11852;50.082;18.554;2024-01-11T06:15:17;114.5;;;51.6;;
23360;SDS011;11852;50.082;18.554;2024-01-11T06:16:21;114.9;;;50.4;;
23360;SDS011;11852;50.082;18.554;2024-01-11T06:17:26;122.9;;;55.1;;
23360;SDS011;11852;50.082;18.554;2024-01-11T06:18:31;118.1;;;52.0;;
23360;SDS011;11852;50.082;18.554;2024-01-11T06:19:36;119.3;;;52.0;;
23360;SDS011;11852;50.082;18.554;2024-01-11T06:20:40;121.9;;;53.5;;
23360;SDS011;11852;50.082;18.554;2024-01-11T06:21:45;127.5;;;54.6;;
23360;SDS011;11852;50.082;18.554;2024-01-11T06:22:50;122.7;;;52.6;;
23360;SDS011;11852;50.082;18.554;2024-01-11T06:23:55;116.6;;;51.8;;
23360;SDS011;11852;50.082;18.554;2024-01-11T06:25:03;121.7;;;52.3;;
23360;SDS011;11852;50.082;18.554;2024-01-11T06:26:07;114.9;;;52.6;;